Archbold, OH

10:21 AM EST on February 27, 2015 (GMT -0500)
3 Miles ESE Archbold, OH | Change Station
CLOSE
Current Station
Personal Weather Station
Location: Archbold, OH
Elevation: 741 ft
Nearby Weather Stations

Elev 741 ft 41.49 °N, 84.26 °W | Updated 1 second ago

Clear
Clear
12.5 °F
Feels Like 13 °F
N
0.0
Wind Variable Wind from ENE
Gusts 0.0 mph

Today
High -- | Low -- °F
--% Chance of Precip.
Yesterday
High -- | Low -- °F
Precip. -- in
7:15 AM 6:25 PM
Waxing Gibbous, 69% visible
Pressure 30.54 in
Visibility 10.0 miles
Clouds Clear
Windchill 13 °F
Dew Point 5 °F
Humidity 72%
Rainfall 0.00 in
Snow Depth Not available.
UV 3 out of 12
Pollen .40 out of 12
Air Quality Not available.
Flu Activity Not available.
METAR KUSE 271515Z AUTO 32003KT 10SM CLR M16/M21 A3054 RMK AO2

More Conditions Fewer Conditions

Pressure 30.54 in
Visibility 10.0 miles
Clouds Clear
Windchill 13 °F
Dew Point 5 °F
Humidity 72%
Rainfall 0.00 in
Snow Depth Not available.
UV 3 out of 12
Pollen .40 out of 12
Air Quality Not available.
Flu Activity Not available.
METAR KUSE 271515Z AUTO 32003KT 10SM CLR M16/M21 A3054 RMK AO2

More Conditions Fewer Conditions

10-Day Weather Forecast

Almanac

Astronomy

Feb. 27, 2015 Rise Set
Actual Time
Civil Twilight
Nautical Twilight
Astronomical Twilight
Moon
Length of Visible Light
Length of Day
Tomorrow will be .
, % of the Moon is Illuminated

Today's Extremes

State Highs State Lows

Community

WunderPhotos

Upload Photos

1,800,694 photos uploaded!

WunderBlogs® & News

Nearby

Air Quality

  Air Quality AQ Index Pollutant
Not available.

Snow Depth

Station Depth Elevation

Earthquake Activity

City Distance Mag. Time & Date
Minimum magnitude displayed is 2.5.

Coastal Water Temperatures

Place Temperature

Nearby Weather Stations